createdAt,value
2023-03-29T00:02:30.484Z,73.00
2023-03-29T00:04:58.088Z,72.90
2023-03-29T00:07:26.148Z,72.70
2023-03-29T00:09:53.368Z,72.70
2023-03-29T00:12:20.251Z,72.60
2023-03-29T00:14:47.139Z,72.60
2023-03-29T00:17:13.956Z,72.50
2023-03-29T00:19:43.039Z,72.50
2023-03-29T00:22:09.870Z,72.50
2023-03-29T00:24:37.158Z,72.50
2023-03-29T00:27:04.445Z,72.50
2023-03-29T00:29:31.447Z,72.30
2023-03-29T00:31:58.727Z,72.30
2023-03-29T00:34:31.000Z,72.20
2023-03-29T00:36:58.819Z,72.30
2023-03-29T00:39:26.567Z,72.30
2023-03-29T00:41:56.029Z,72.30
2023-03-29T00:44:41.632Z,72.10
2023-03-29T00:47:11.556Z,72.00
2023-03-29T00:49:38.973Z,72.60
2023-03-29T00:52:06.524Z,71.80
2023-03-29T00:54:34.454Z,71.80
2023-03-29T00:57:04.137Z,71.90
2023-03-29T00:59:33.092Z,71.90
2023-03-29T01:02:02.322Z,71.90
2023-03-29T01:04:32.755Z,71.90
2023-03-29T01:07:01.991Z,71.80
2023-03-29T01:09:31.204Z,71.80
2023-03-29T01:12:00.978Z,71.80
2023-03-29T01:14:31.175Z,71.90
2023-03-29T01:16:59.480Z,71.80
2023-03-29T01:19:30.396Z,71.70
2023-03-29T01:22:16.228Z,71.70
2023-03-29T01:25:13.280Z,71.70
2023-03-29T01:27:43.730Z,71.80
2023-03-29T01:30:16.347Z,71.70
2023-03-29T01:32:46.592Z,71.80
2023-03-29T01:35:18.304Z,71.90
2023-03-29T01:37:56.711Z,71.80
2023-03-29T01:40:24.254Z,71.80
2023-03-29T01:42:54.118Z,71.80
2023-03-29T01:45:24.401Z,72.00
2023-03-29T01:47:57.802Z,72.00
2023-03-29T01:50:36.338Z,71.90
2023-03-29T01:53:06.094Z,71.90
2023-03-29T01:55:39.547Z,72.00
2023-03-29T01:58:08.713Z,72.90
2023-03-29T02:00:36.582Z,72.20
2023-03-29T02:03:06.326Z,72.20
2023-03-29T02:05:35.032Z,72.20
2023-03-29T02:08:02.711Z,72.20
2023-03-29T02:10:33.057Z,72.30
2023-03-29T02:13:00.323Z,72.20
2023-03-29T02:15:27.258Z,72.20
2023-03-29T02:17:57.230Z,72.20
2023-03-29T02:20:27.961Z,72.30
2023-03-29T02:22:59.013Z,72.30
2023-03-29T02:25:26.587Z,72.30
2023-03-29T02:27:54.145Z,72.20
2023-03-29T02:30:21.356Z,72.20
2023-03-29T02:32:51.961Z,72.10
2023-03-29T02:35:34.329Z,72.20
2023-03-29T02:38:03.758Z,72.30
2023-03-29T02:40:32.682Z,72.30
2023-03-29T02:43:00.856Z,72.30
2023-03-29T02:45:28.466Z,72.30
2023-03-29T02:47:57.304Z,72.30
2023-03-29T02:50:26.067Z,72.50
2023-03-29T02:52:56.000Z,72.40
2023-03-29T02:55:24.583Z,72.40
2023-03-29T02:57:51.848Z,72.90
2023-03-29T03:00:19.878Z,72.40
2023-03-29T03:02:47.547Z,72.40
2023-03-29T03:05:14.657Z,72.50
2023-03-29T03:07:41.588Z,72.50
2023-03-29T03:10:10.316Z,72.50
2023-03-29T03:12:38.821Z,72.50
2023-03-29T03:15:06.774Z,72.40
2023-03-29T03:17:33.902Z,72.50
2023-03-29T03:20:00.903Z,72.50
2023-03-29T03:22:28.642Z,72.50
2023-03-29T03:24:56.072Z,72.50
2023-03-29T03:27:23.376Z,72.60
2023-03-29T03:29:50.661Z,72.70
2023-03-29T03:32:17.559Z,72.60
2023-03-29T03:35:11.803Z,72.60
2023-03-29T03:37:41.036Z,72.60
2023-03-29T03:40:11.646Z,72.70
2023-03-29T03:42:41.545Z,72.60
2023-03-29T03:45:08.904Z,72.70
2023-03-29T03:47:51.598Z,72.80
2023-03-29T03:50:38.297Z,72.80
2023-03-29T03:53:05.878Z,72.90
2023-03-29T03:55:54.234Z,72.90
2023-03-29T03:58:24.505Z,72.90
2023-03-29T04:00:51.872Z,73.00
2023-03-29T04:03:34.444Z,73.00
2023-03-29T04:06:03.560Z,73.00
2023-03-29T04:08:44.480Z,73.10
2023-03-29T04:11:25.603Z,73.10
2023-03-29T04:13:53.488Z,73.20
2023-03-29T04:16:27.739Z,73.20
2023-03-29T04:18:57.457Z,73.10
2023-03-29T04:21:24.815Z,73.10
2023-03-29T04:23:53.110Z,73.20
2023-03-29T04:26:20.351Z,73.20
2023-03-29T04:28:50.215Z,73.20
2023-03-29T04:31:25.391Z,73.20
2023-03-29T04:34:11.435Z,73.30
2023-03-29T04:36:39.023Z,73.30
2023-03-29T04:39:12.525Z,73.20
2023-03-29T04:41:41.323Z,73.30
2023-03-29T04:44:17.705Z,73.30
2023-03-29T04:46:46.195Z,73.30
2023-03-29T04:49:32.590Z,73.40
2023-03-29T04:52:01.021Z,73.40
2023-03-29T04:54:30.926Z,73.40
2023-03-29T04:57:27.940Z,73.40
2023-03-29T05:00:17.347Z,73.30
2023-03-29T05:02:59.502Z,73.40
2023-03-29T05:05:31.686Z,73.40
2023-03-29T05:08:01.617Z,73.40
2023-03-29T05:10:38.615Z,73.40
2023-03-29T05:13:06.636Z,73.40
2023-03-29T05:15:34.388Z,73.40
2023-03-29T05:18:02.382Z,73.40
2023-03-29T05:20:31.603Z,73.40
2023-03-29T05:22:59.886Z,73.40
2023-03-29T05:25:50.701Z,73.40
2023-03-29T05:28:19.392Z,73.40
2023-03-29T05:30:47.470Z,73.40
2023-03-29T05:33:20.921Z,73.40
2023-03-29T05:35:47.787Z,73.40
2023-03-29T05:38:16.197Z,73.50
2023-03-29T05:40:44.577Z,73.50
2023-03-29T05:43:27.073Z,73.40
2023-03-29T05:45:54.952Z,73.40
2023-03-29T05:48:23.186Z,73.40
2023-03-29T05:50:50.638Z,73.40
2023-03-29T05:53:18.977Z,73.50
2023-03-29T05:55:46.726Z,73.50
2023-03-29T05:58:17.958Z,73.40
2023-03-29T06:00:45.830Z,73.50
2023-03-29T06:03:47.859Z,73.60
2023-03-29T06:06:18.055Z,73.60
2023-03-29T06:08:46.766Z,73.70
2023-03-29T06:11:32.881Z,73.70
2023-03-29T06:14:19.559Z,73.60
2023-03-29T06:16:51.937Z,73.60
2023-03-29T06:19:19.761Z,73.60
2023-03-29T06:21:47.383Z,73.70
2023-03-29T06:24:19.815Z,73.70
2023-03-29T06:26:56.384Z,73.60
2023-03-29T06:29:23.289Z,73.60
2023-03-29T06:31:51.945Z,73.70
2023-03-29T06:34:51.855Z,73.70
2023-03-29T06:37:32.399Z,73.70
2023-03-29T06:40:10.049Z,73.70
2023-03-29T06:42:44.633Z,73.70
2023-03-29T06:45:32.365Z,73.80
2023-03-29T06:48:02.107Z,73.80
2023-03-29T06:50:30.356Z,73.80
2023-03-29T06:53:17.440Z,73.80
2023-03-29T06:55:53.715Z,73.80
2023-03-29T06:58:49.709Z,73.80
2023-03-29T07:01:32.980Z,73.90
2023-03-29T07:04:09.450Z,73.90
2023-03-29T07:07:02.456Z,74.00
2023-03-29T07:09:33.448Z,74.00
2023-03-29T07:12:36.093Z,74.10
2023-03-29T07:15:06.608Z,74.10
2023-03-29T07:18:12.909Z,74.00
2023-03-29T07:20:40.570Z,74.10
2023-03-29T07:23:11.240Z,74.10
2023-03-29T07:25:39.333Z,74.10
2023-03-29T07:28:07.130Z,74.20
2023-03-29T07:30:35.116Z,74.20
2023-03-29T07:33:14.606Z,74.30
2023-03-29T07:36:06.939Z,74.30
2023-03-29T07:38:35.057Z,74.30
2023-03-29T07:41:08.056Z,74.30
2023-03-29T07:43:54.244Z,74.40
2023-03-29T07:46:24.423Z,74.40
2023-03-29T07:48:51.252Z,74.50
2023-03-29T07:51:18.316Z,74.60
2023-03-29T07:53:49.073Z,74.60
2023-03-29T07:56:30.317Z,74.60
2023-03-29T07:59:17.634Z,74.60
2023-03-29T08:02:04.400Z,74.80
2023-03-29T08:04:38.503Z,74.70
2023-03-29T08:07:36.881Z,74.80
2023-03-29T08:10:04.011Z,74.80
2023-03-29T08:12:58.049Z,74.80
2023-03-29T08:15:37.780Z,74.90
2023-03-29T08:18:06.872Z,75.00
2023-03-29T08:20:33.979Z,75.00
2023-03-29T08:23:05.326Z,74.90
2023-03-29T08:26:00.752Z,75.00
2023-03-29T08:28:28.077Z,75.00
2023-03-29T08:31:08.474Z,74.90
2023-03-29T08:33:48.181Z,75.00
2023-03-29T08:36:42.356Z,75.00
2023-03-29T08:39:18.503Z,75.10
2023-03-29T08:42:06.627Z,75.00
2023-03-29T08:44:54.455Z,75.00
2023-03-29T08:47:37.122Z,75.10
2023-03-29T08:50:05.098Z,75.00
2023-03-29T08:52:46.700Z,75.10
2023-03-29T08:55:29.708Z,75.10
2023-03-29T08:58:29.387Z,75.10
2023-03-29T09:00:58.799Z,75.20
2023-03-29T09:03:31.853Z,75.30
2023-03-29T09:06:06.731Z,75.50
2023-03-29T09:08:40.240Z,75.50
2023-03-29T09:11:12.537Z,75.60
2023-03-29T09:13:49.049Z,75.70
2023-03-29T09:16:31.171Z,75.70
2023-03-29T09:19:18.782Z,75.70
2023-03-29T09:22:04.334Z,75.70
2023-03-29T09:24:50.438Z,75.60
2023-03-29T09:27:19.774Z,75.70
2023-03-29T09:30:04.816Z,75.80
2023-03-29T09:32:54.118Z,75.70
2023-03-29T09:35:39.283Z,75.70
2023-03-29T09:38:10.028Z,75.70
2023-03-29T09:40:44.588Z,75.70
2023-03-29T09:43:19.041Z,75.80
2023-03-29T09:45:50.092Z,75.90
2023-03-29T09:48:18.245Z,75.80
2023-03-29T09:50:51.529Z,75.90
2023-03-29T09:53:21.039Z,76.70
2023-03-29T09:56:19.045Z,75.80
2023-03-29T09:59:07.165Z,75.90
2023-03-29T10:01:37.236Z,75.90
2023-03-29T10:04:09.706Z,75.90
2023-03-29T10:06:49.409Z,75.90
2023-03-29T10:09:21.602Z,75.90
2023-03-29T10:11:52.375Z,75.90
2023-03-29T10:14:21.349Z,76.00
2023-03-29T10:16:54.475Z,76.00
2023-03-29T10:19:34.424Z,76.10
2023-03-29T10:22:03.596Z,76.00
2023-03-29T10:24:30.356Z,76.20
2023-03-29T10:26:58.852Z,76.20
2023-03-29T10:29:25.954Z,76.30
2023-03-29T10:31:53.125Z,76.30
2023-03-29T10:34:20.356Z,76.20
2023-03-29T10:36:53.727Z,76.00
2023-03-29T10:39:20.668Z,75.80
2023-03-29T10:41:50.116Z,75.50
2023-03-29T10:44:27.705Z,75.50
2023-03-29T10:46:54.732Z,75.40
2023-03-29T10:49:22.781Z,75.40
2023-03-29T10:51:50.826Z,75.40
2023-03-29T10:54:22.226Z,76.30
2023-03-29T10:56:52.334Z,75.40
2023-03-29T10:59:29.993Z,75.50
2023-03-29T11:02:15.182Z,75.50
2023-03-29T11:04:59.166Z,75.60
2023-03-29T11:07:52.368Z,75.60
2023-03-29T11:10:31.449Z,75.80
2023-03-29T11:13:08.462Z,76.70
2023-03-29T11:15:54.247Z,76.00
2023-03-29T11:18:24.156Z,76.00
2023-03-29T11:20:54.076Z,76.00
2023-03-29T11:23:27.422Z,76.00
2023-03-29T11:25:54.343Z,76.00
2023-03-29T11:28:24.271Z,75.80
2023-03-29T11:31:01.741Z,75.90
2023-03-29T11:33:34.838Z,75.70
2023-03-29T11:36:20.610Z,75.60
2023-03-29T11:39:06.257Z,75.70
2023-03-29T11:41:38.887Z,75.50
2023-03-29T11:44:16.621Z,75.50
2023-03-29T11:46:43.516Z,75.50
2023-03-29T11:49:29.340Z,75.50
2023-03-29T11:52:04.205Z,75.70
2023-03-29T11:54:34.678Z,75.70
2023-03-29T11:57:11.272Z,75.90
2023-03-29T11:59:48.230Z,76.10
2023-03-29T12:02:35.755Z,76.00
2023-03-29T12:05:10.120Z,76.20
2023-03-29T12:07:40.931Z,76.10
2023-03-29T12:10:10.090Z,76.10
2023-03-29T12:12:45.897Z,76.10
2023-03-29T12:15:15.874Z,76.20
2023-03-29T12:17:49.186Z,76.20
2023-03-29T12:20:23.365Z,76.20
2023-03-29T12:22:51.926Z,76.10
2023-03-29T12:25:22.779Z,76.20
2023-03-29T12:28:09.172Z,76.10
2023-03-29T12:30:54.434Z,76.00
2023-03-29T12:33:41.875Z,76.10
2023-03-29T12:36:36.933Z,76.10
2023-03-29T12:39:33.722Z,76.20
2023-03-29T12:42:20.218Z,76.20
2023-03-29T12:45:08.867Z,76.10
2023-03-29T12:47:42.313Z,76.10
2023-03-29T12:50:28.547Z,76.00
2023-03-29T12:53:02.727Z,75.90
2023-03-29T12:55:30.643Z,76.00
2023-03-29T12:58:00.456Z,76.00
2023-03-29T13:00:32.505Z,76.00
2023-03-29T13:03:00.657Z,76.10
2023-03-29T13:05:29.558Z,76.20
2023-03-29T13:07:56.850Z,76.20
2023-03-29T13:10:34.184Z,76.30
2023-03-29T13:13:09.483Z,76.40
2023-03-29T13:15:37.214Z,76.30
2023-03-29T13:18:19.562Z,77.20
2023-03-29T13:20:47.720Z,76.20
2023-03-29T13:23:20.654Z,76.20
2023-03-29T13:26:07.637Z,76.20
2023-03-29T13:28:34.470Z,76.20
2023-03-29T13:31:05.901Z,76.20
2023-03-29T13:33:39.659Z,76.30
2023-03-29T13:36:06.760Z,76.20
2023-03-29T13:38:44.101Z,76.20
2023-03-29T13:41:27.746Z,76.20
2023-03-29T13:43:55.178Z,76.10
2023-03-29T13:46:23.673Z,76.20
2023-03-29T13:48:59.642Z,76.10
2023-03-29T13:51:28.544Z,76.10
2023-03-29T13:53:58.069Z,76.10
2023-03-29T13:56:27.173Z,76.10
2023-03-29T13:59:03.587Z,76.10
2023-03-29T14:01:43.837Z,76.10
2023-03-29T14:04:13.697Z,76.10
2023-03-29T14:06:42.508Z,76.00
2023-03-29T14:09:10.770Z,76.00
2023-03-29T14:11:37.890Z,75.90
2023-03-29T14:14:06.653Z,75.60
2023-03-29T14:16:36.860Z,75.60
2023-03-29T14:19:05.373Z,75.60
2023-03-29T14:21:32.622Z,75.50
2023-03-29T14:24:03.066Z,75.40
2023-03-29T14:26:31.123Z,75.30
2023-03-29T14:28:58.356Z,75.40
2023-03-29T14:31:26.710Z,75.30
2023-03-29T14:33:54.447Z,75.20
2023-03-29T14:36:21.856Z,75.10
2023-03-29T14:38:51.009Z,74.90
2023-03-29T14:41:18.260Z,74.70
2023-03-29T14:43:46.413Z,74.70
2023-03-29T14:46:15.396Z,74.60
2023-03-29T14:48:43.138Z,74.70
2023-03-29T14:51:10.611Z,74.80
2023-03-29T14:53:39.145Z,74.80
2023-03-29T14:56:07.157Z,74.70
2023-03-29T14:58:35.367Z,74.70
2023-03-29T15:01:08.471Z,74.70
2023-03-29T15:03:42.515Z,74.80
2023-03-29T15:06:09.741Z,74.80
2023-03-29T15:08:38.227Z,74.80
2023-03-29T15:11:18.154Z,74.90
2023-03-29T15:13:46.344Z,74.80
2023-03-29T15:16:15.006Z,74.80
2023-03-29T15:18:42.936Z,74.80
2023-03-29T15:21:11.639Z,74.70
2023-03-29T15:23:41.629Z,74.70
2023-03-29T15:26:12.469Z,74.70
2023-03-29T15:29:02.903Z,74.80
2023-03-29T15:31:34.767Z,74.90
2023-03-29T15:34:07.649Z,74.90
2023-03-29T15:36:38.796Z,74.90
2023-03-29T15:39:05.632Z,74.80
2023-03-29T15:41:32.335Z,74.90
2023-03-29T15:43:59.257Z,75.00
2023-03-29T15:46:26.322Z,74.90
2023-03-29T15:48:53.625Z,74.90
2023-03-29T15:51:20.611Z,74.80
2023-03-29T15:53:47.467Z,74.90
2023-03-29T15:56:16.060Z,74.80
2023-03-29T15:58:43.480Z,74.70
2023-03-29T16:01:23.359Z,74.70
2023-03-29T16:03:50.867Z,74.70
2023-03-29T16:06:18.334Z,74.60
2023-03-29T16:08:46.131Z,74.50
2023-03-29T16:11:13.133Z,74.60
2023-03-29T16:13:40.215Z,74.50
2023-03-29T16:16:07.860Z,74.60
2023-03-29T16:18:35.684Z,74.70
2023-03-29T16:21:03.087Z,74.70
2023-03-29T16:23:30.553Z,74.70
2023-03-29T16:25:59.198Z,74.70
2023-03-29T16:28:26.446Z,74.80
2023-03-29T16:30:53.248Z,74.80
2023-03-29T16:33:20.126Z,74.90
2023-03-29T16:35:47.345Z,74.80
2023-03-29T16:38:15.653Z,74.90
2023-03-29T16:40:43.809Z,74.90
2023-03-29T16:43:14.768Z,74.90
2023-03-29T16:45:42.494Z,74.80
2023-03-29T16:48:17.816Z,74.90
2023-03-29T16:50:48.602Z,74.90
2023-03-29T16:53:15.988Z,74.80
2023-03-29T16:55:43.146Z,74.80
2023-03-29T16:58:14.011Z,74.70
2023-03-29T17:00:41.288Z,74.70
2023-03-29T17:03:09.079Z,74.80
2023-03-29T17:05:41.802Z,74.80
2023-03-29T17:08:10.314Z,74.80
2023-03-29T17:10:39.846Z,74.80
2023-03-29T17:13:07.129Z,74.70
2023-03-29T17:15:35.228Z,74.80
2023-03-29T17:18:04.014Z,74.80
2023-03-29T17:20:32.084Z,74.70
2023-03-29T17:22:59.281Z,74.70
2023-03-29T17:25:26.055Z,74.80
2023-03-29T17:27:54.086Z,74.80
2023-03-29T17:30:21.124Z,74.70
2023-03-29T17:32:48.187Z,74.70
2023-03-29T17:35:14.993Z,74.70
2023-03-29T17:37:42.562Z,74.80
2023-03-29T17:40:14.234Z,74.60
2023-03-29T17:42:42.040Z,74.70
2023-03-29T17:45:09.973Z,74.70
2023-03-29T17:47:37.820Z,74.70
2023-03-29T17:50:06.331Z,74.70
2023-03-29T17:52:33.773Z,74.80
2023-03-29T17:55:01.790Z,74.70
2023-03-29T17:57:29.015Z,74.60
2023-03-29T17:59:56.463Z,74.60
2023-03-29T18:02:24.592Z,74.60
2023-03-29T18:04:51.988Z,74.60
2023-03-29T18:07:19.334Z,74.60
2023-03-29T18:09:46.680Z,74.60
2023-03-29T18:12:13.632Z,74.60
2023-03-29T18:14:41.230Z,74.70
2023-03-29T18:17:08.164Z,75.50
2023-03-29T18:19:35.005Z,74.60
2023-03-29T18:22:02.190Z,74.70
2023-03-29T18:24:32.546Z,74.60
2023-03-29T18:26:59.412Z,74.50
2023-03-29T18:29:26.639Z,74.50
2023-03-29T18:31:53.507Z,74.60
2023-03-29T18:34:20.522Z,74.60
2023-03-29T18:36:47.516Z,74.60
2023-03-29T18:39:14.787Z,74.60
2023-03-29T18:41:41.619Z,74.40
2023-03-29T18:44:09.451Z,74.50
2023-03-29T18:46:36.396Z,74.40
2023-03-29T18:49:03.315Z,74.40
2023-03-29T18:51:31.064Z,74.50
2023-03-29T18:53:58.105Z,74.40
2023-03-29T18:56:25.421Z,74.40
2023-03-29T18:58:52.593Z,75.30
2023-03-29T19:01:19.679Z,74.50
2023-03-29T19:03:47.880Z,74.40
2023-03-29T19:06:15.120Z,74.50
2023-03-29T19:08:42.240Z,74.40
2023-03-29T19:11:10.623Z,74.40
2023-03-29T19:13:37.852Z,74.40
2023-03-29T19:16:05.249Z,74.40
2023-03-29T19:18:32.776Z,74.30
2023-03-29T19:20:59.589Z,74.30
2023-03-29T19:23:28.211Z,74.20
2023-03-29T19:25:55.961Z,74.20
2023-03-29T19:28:23.220Z,74.10
2023-03-29T19:30:50.022Z,74.10
2023-03-29T19:33:17.001Z,74.10
2023-03-29T19:35:44.405Z,74.10
2023-03-29T19:38:11.238Z,74.10
2023-03-29T19:40:38.473Z,74.10
2023-03-29T19:43:05.234Z,74.10
2023-03-29T19:45:31.958Z,74.10
2023-03-29T19:50:26.759Z,74.10
2023-03-29T19:52:54.448Z,74.10
2023-03-29T19:55:21.703Z,74.10
2023-03-29T19:57:48.716Z,74.20
2023-03-29T20:00:16.157Z,74.00
2023-03-29T20:02:44.140Z,74.00
2023-03-29T20:05:12.872Z,74.00
2023-03-29T20:07:39.992Z,74.00
2023-03-29T20:10:07.251Z,73.90
2023-03-29T20:12:37.127Z,73.80
2023-03-29T20:15:04.037Z,73.70
2023-03-29T20:17:31.665Z,73.70
2023-03-29T20:19:58.994Z,73.70
2023-03-29T20:22:25.966Z,73.70
2023-03-29T20:24:52.957Z,73.70
2023-03-29T20:27:21.403Z,73.70
2023-03-29T20:29:48.863Z,73.80
2023-03-29T20:32:15.896Z,73.70
2023-03-29T20:34:43.107Z,73.80
2023-03-29T20:37:10.438Z,73.70
2023-03-29T20:39:37.181Z,73.80
2023-03-29T20:42:03.993Z,73.90
2023-03-29T20:44:31.956Z,73.90
2023-03-29T20:47:03.731Z,73.90
2023-03-29T20:49:37.133Z,73.90
2023-03-29T20:52:08.088Z,74.00
2023-03-29T20:54:35.614Z,74.10
2023-03-29T20:57:03.278Z,74.00
2023-03-29T20:59:29.975Z,74.10
2023-03-29T21:01:57.048Z,74.10
2023-03-29T21:04:24.931Z,74.20
2023-03-29T21:06:51.642Z,74.20
2023-03-29T21:09:21.035Z,74.20
2023-03-29T21:11:49.117Z,74.20
2023-03-29T21:14:21.108Z,74.20
2023-03-29T21:16:48.584Z,74.10
2023-03-29T21:19:16.258Z,74.20
2023-03-29T21:21:43.631Z,74.20
2023-03-29T21:24:13.089Z,74.30
2023-03-29T21:26:40.554Z,74.20
2023-03-29T21:29:07.327Z,74.20
2023-03-29T21:31:34.054Z,74.30
2023-03-29T21:34:01.159Z,74.30
2023-03-29T21:36:27.869Z,74.30
2023-03-29T21:38:54.770Z,74.30
2023-03-29T21:41:22.048Z,74.30
2023-03-29T21:43:48.853Z,74.30
2023-03-29T21:46:16.294Z,74.30
2023-03-29T21:48:43.889Z,74.30
2023-03-29T21:51:10.884Z,74.30
2023-03-29T21:53:38.323Z,74.30
2023-03-29T21:56:06.753Z,74.30
2023-03-29T21:58:33.858Z,74.30
2023-03-29T22:01:03.713Z,74.20
2023-03-29T22:03:30.734Z,74.30
2023-03-29T22:05:58.354Z,74.30
2023-03-29T22:08:26.447Z,74.40
2023-03-29T22:10:56.693Z,74.40
2023-03-29T22:13:28.193Z,74.40
2023-03-29T22:15:59.127Z,74.40
2023-03-29T22:18:42.618Z,74.50
2023-03-29T22:21:15.034Z,74.50
2023-03-29T22:23:42.807Z,74.40
2023-03-29T22:26:11.118Z,74.40
2023-03-29T22:28:38.351Z,74.40
2023-03-29T22:31:06.499Z,74.50
2023-03-29T22:33:33.625Z,74.50
2023-03-29T22:36:01.425Z,74.40
2023-03-29T22:38:29.405Z,74.50
2023-03-29T22:40:56.439Z,74.50
2023-03-29T22:43:23.210Z,74.60
2023-03-29T22:45:50.481Z,74.60
2023-03-29T22:48:17.309Z,74.60
2023-03-29T22:50:45.854Z,74.60
2023-03-29T22:53:12.715Z,74.60
2023-03-29T22:55:39.451Z,74.70
2023-03-29T22:58:06.156Z,74.70
2023-03-29T23:00:33.268Z,74.70
2023-03-29T23:03:00.095Z,74.70
2023-03-29T23:05:26.837Z,74.70
2023-03-29T23:07:53.741Z,74.70
2023-03-29T23:10:20.505Z,74.80
2023-03-29T23:12:49.077Z,74.80
2023-03-29T23:15:16.965Z,74.80
2023-03-29T23:17:44.079Z,74.80
2023-03-29T23:20:11.250Z,74.80
2023-03-29T23:22:39.614Z,74.80
2023-03-29T23:25:07.568Z,74.70
2023-03-29T23:27:36.553Z,74.80
2023-03-29T23:30:03.456Z,74.80
2023-03-29T23:32:30.228Z,74.80
2023-03-29T23:34:56.985Z,74.90
2023-03-29T23:37:24.876Z,74.90
2023-03-29T23:39:51.568Z,74.90
2023-03-29T23:42:18.351Z,74.80
2023-03-29T23:44:45.568Z,74.80
2023-03-29T23:47:12.390Z,74.80
2023-03-29T23:49:39.122Z,74.80
2023-03-29T23:52:05.877Z,74.80
2023-03-29T23:54:32.799Z,74.80
2023-03-29T23:57:00.159Z,74.80
2023-03-29T23:59:30.578Z,74.80
